createdAt,value
2023-04-16T00:00:48.302Z,6.37
2023-04-16T00:05:51.343Z,7.80
2023-04-16T00:10:54.334Z,7.60
2023-04-16T00:15:58.985Z,7.77
2023-04-16T00:21:01.789Z,7.37
2023-04-16T00:26:04.423Z,6.57
2023-04-16T00:31:08.388Z,7.17
2023-04-16T00:36:11.086Z,7.20
2023-04-16T00:41:13.689Z,8.50
2023-04-16T00:46:17.985Z,7.37
2023-04-16T00:51:21.409Z,9.00
2023-04-16T00:56:25.585Z,9.33
2023-04-16T01:01:29.736Z,10.03
2023-04-16T01:06:32.392Z,9.27
2023-04-16T01:11:35.002Z,10.10
2023-04-16T01:23:26.776Z,10.50
2023-04-16T01:28:29.419Z,10.13
2023-04-16T01:33:32.303Z,10.93
2023-04-16T01:38:36.515Z,11.80
2023-04-16T01:43:40.277Z,12.73
2023-04-16T01:48:43.323Z,12.07
2023-04-16T01:53:47.237Z,11.33
2023-04-16T01:58:49.799Z,13.13
2023-04-16T02:03:54.672Z,13.47
2023-04-16T02:08:58.644Z,13.20
2023-04-16T02:14:01.745Z,12.33
2023-04-16T02:19:04.741Z,11.90
2023-04-16T02:24:11.916Z,12.60
2023-04-16T02:29:14.807Z,12.50
2023-04-16T02:34:21.663Z,13.67
2023-04-16T02:39:26.417Z,15.07
2023-04-16T02:44:30.450Z,13.33
2023-04-16T02:49:33.021Z,15.50
2023-04-16T02:54:36.909Z,17.23
2023-04-16T02:59:39.506Z,18.03
2023-04-16T03:04:42.227Z,18.77
2023-04-16T03:09:46.752Z,18.27
2023-04-16T03:14:51.666Z,19.10
2023-04-16T03:19:54.375Z,19.60
2023-04-16T03:24:58.331Z,21.70
2023-04-16T03:30:01.187Z,20.10
2023-04-16T03:35:03.955Z,19.73
2023-04-16T03:40:09.859Z,18.37
2023-04-16T03:45:13.545Z,14.60
2023-04-16T03:50:16.884Z,16.73
2023-04-16T03:55:21.345Z,17.20
2023-04-16T04:00:24.047Z,15.27
2023-04-16T04:05:37.562Z,13.93
2023-04-16T04:10:41.604Z,16.63
2023-04-16T04:15:47.958Z,15.90
2023-04-16T04:20:50.853Z,15.00
2023-04-16T04:25:57.575Z,14.33
2023-04-16T04:31:01.190Z,15.00
2023-04-16T04:36:07.124Z,16.27
2023-04-16T04:41:12.099Z,15.63
2023-04-16T04:46:15.296Z,14.67
2023-04-16T04:51:17.935Z,16.63
2023-04-16T04:56:24.223Z,16.10
2023-04-16T05:01:26.911Z,18.03
2023-04-16T05:06:29.722Z,17.13
2023-04-16T05:11:34.838Z,16.57
2023-04-16T05:16:38.150Z,17.07
2023-04-16T05:21:40.699Z,18.67
2023-04-16T05:26:44.597Z,19.50
2023-04-16T05:31:47.264Z,22.60
2023-04-16T05:36:50.277Z,24.63
2023-04-16T05:41:54.231Z,22.53
2023-04-16T05:46:56.800Z,22.03
2023-04-16T05:51:59.428Z,20.10
2023-04-16T05:57:03.333Z,21.87
2023-04-16T06:02:06.400Z,22.00
2023-04-16T06:07:08.945Z,21.53
2023-04-16T06:12:12.849Z,21.27
2023-04-16T06:17:16.562Z,22.07
2023-04-16T06:22:19.239Z,20.47
2023-04-16T06:27:23.117Z,20.73
2023-04-16T06:32:26.153Z,22.00
2023-04-16T06:37:28.726Z,20.20
2023-04-16T06:42:32.638Z,33.70
2023-04-16T06:47:35.300Z,25.70
2023-04-16T06:52:37.948Z,21.50
2023-04-16T06:57:41.905Z,21.23
2023-04-16T07:02:44.508Z,22.73
2023-04-16T07:07:47.653Z,20.63
2023-04-16T07:12:52.015Z,22.77
2023-04-16T07:17:54.659Z,23.00
2023-04-16T07:22:59.218Z,23.67
2023-04-16T07:28:04.417Z,21.67
2023-04-16T07:33:07.109Z,22.67
2023-04-16T07:38:09.894Z,23.70
2023-04-16T07:43:16.140Z,24.10
2023-04-16T07:48:18.745Z,22.30
2023-04-16T07:53:21.322Z,22.80
2023-04-16T07:58:25.376Z,27.63
2023-04-16T08:03:28.318Z,24.50
2023-04-16T08:08:31.605Z,23.53
2023-04-16T08:13:36.591Z,22.30
2023-04-16T08:18:39.131Z,23.77
2023-04-16T08:23:41.690Z,21.33
2023-04-16T08:28:46.502Z,24.47
2023-04-16T08:33:49.219Z,23.50
2023-04-16T08:38:52.494Z,25.20
2023-04-16T08:43:58.649Z,29.90
2023-04-16T08:49:02.264Z,21.60
2023-04-16T08:54:09.915Z,24.30
2023-04-16T08:59:14.823Z,20.53
2023-04-16T09:04:18.059Z,20.00
2023-04-16T09:09:22.123Z,22.13
2023-04-16T09:14:26.445Z,21.73
2023-04-16T09:19:29.406Z,22.53
2023-04-16T09:24:34.500Z,21.03
2023-04-16T09:29:40.441Z,22.80
2023-04-16T09:35:02.382Z,23.50
2023-04-16T09:40:08.155Z,20.23
2023-04-16T09:45:12.720Z,20.13
2023-04-16T09:50:18.583Z,21.10
2023-04-16T09:55:24.552Z,22.33
2023-04-16T10:07:15.268Z,23.40
2023-04-16T10:12:18.192Z,19.77
2023-04-16T10:17:21.418Z,18.97
2023-04-16T10:22:25.345Z,19.00
2023-04-16T10:27:28.318Z,19.67
2023-04-16T10:32:32.764Z,16.20
2023-04-16T10:37:38.523Z,17.83
2023-04-16T10:42:41.297Z,16.27
2023-04-16T10:47:43.928Z,20.70
2023-04-16T10:52:47.871Z,18.40
2023-04-16T10:57:52.645Z,15.20
2023-04-16T11:02:55.562Z,16.93
2023-04-16T11:08:15.101Z,15.63
2023-04-16T11:13:19.346Z,14.13
2023-04-16T11:18:21.933Z,14.30
2023-04-16T11:23:25.833Z,14.77
2023-04-16T11:28:35.080Z,13.20
2023-04-16T11:33:40.812Z,12.70
2023-04-16T11:38:47.136Z,13.57
2023-04-16T11:43:51.044Z,21.70
2023-04-16T11:48:56.164Z,12.30
2023-04-16T11:54:01.559Z,13.40
2023-04-16T11:59:13.481Z,13.37
2023-04-16T12:04:17.553Z,13.10
2023-04-16T12:09:26.057Z,13.40
2023-04-16T12:14:29.417Z,13.90
2023-04-16T12:19:32.169Z,12.50
2023-04-16T12:24:38.526Z,13.47
2023-04-16T12:29:42.392Z,13.37
2023-04-16T12:34:51.349Z,14.40
2023-04-16T12:39:55.527Z,14.53
2023-04-16T12:44:58.040Z,14.90
2023-04-16T12:50:01.391Z,16.10
2023-04-16T12:55:05.774Z,15.00
2023-04-16T13:00:10.370Z,13.60
2023-04-16T13:05:14.432Z,12.57
2023-04-16T13:10:21.492Z,14.33
2023-04-16T13:15:24.184Z,14.60
2023-04-16T13:20:27.179Z,14.30
2023-04-16T13:25:31.741Z,15.03
2023-04-16T13:30:34.374Z,15.40
2023-04-16T13:35:37.188Z,17.07
2023-04-16T13:40:41.946Z,14.63
2023-04-16T13:45:44.518Z,13.43
2023-04-16T13:50:47.050Z,15.23
2023-04-16T13:55:50.962Z,14.40
2023-04-16T14:00:53.976Z,15.40
2023-04-16T14:05:59.334Z,14.73
2023-04-16T14:11:05.442Z,14.07
2023-04-16T14:16:08.041Z,15.43
2023-04-16T14:21:10.640Z,14.80
2023-04-16T14:26:14.649Z,14.90
2023-04-16T14:31:17.921Z,14.43
2023-04-16T14:36:20.876Z,15.13
2023-04-16T14:41:25.017Z,20.03
2023-04-16T14:46:27.955Z,12.80
2023-04-16T14:51:31.345Z,15.10
2023-04-16T14:56:35.635Z,14.10
2023-04-16T15:01:39.685Z,13.63
2023-04-16T15:06:42.370Z,13.60
2023-04-16T15:11:46.333Z,14.47
2023-04-16T15:16:49.116Z,13.77
2023-04-16T15:21:51.707Z,15.10
2023-04-16T15:26:56.072Z,15.83
2023-04-16T15:31:58.752Z,15.40
2023-04-16T15:37:01.375Z,16.10
2023-04-16T15:42:07.411Z,17.57
2023-04-16T15:47:10.197Z,16.40
2023-04-16T15:52:12.819Z,16.87
2023-04-16T15:57:16.735Z,17.13
2023-04-16T16:02:19.376Z,15.93
2023-04-16T16:07:22.179Z,17.73
2023-04-16T16:12:26.456Z,16.90
2023-04-16T16:17:29.261Z,17.03
2023-04-16T16:22:31.838Z,19.07
2023-04-16T16:27:36.397Z,19.10
2023-04-16T16:32:40.798Z,19.17
2023-04-16T16:37:43.632Z,18.33
2023-04-16T16:42:47.590Z,18.50
2023-04-16T16:47:51.006Z,20.50
2023-04-16T16:52:54.358Z,21.60
2023-04-16T16:57:58.432Z,19.80
2023-04-16T17:03:01.312Z,21.03
2023-04-16T17:08:04.172Z,20.40
2023-04-16T17:13:08.084Z,20.07
2023-04-16T17:18:10.707Z,22.23
2023-04-16T17:23:14.017Z,18.40
2023-04-16T17:28:18.137Z,20.20
2023-04-16T17:33:21.250Z,23.50
2023-04-16T17:38:24.463Z,21.23
2023-04-16T17:43:28.814Z,21.13
2023-04-16T17:48:31.714Z,21.00
2023-04-16T17:53:34.271Z,19.77
2023-04-16T17:58:38.381Z,20.17
2023-04-16T18:03:42.024Z,20.10
2023-04-16T18:08:44.697Z,17.30
2023-04-16T18:13:48.602Z,18.17
2023-04-16T18:18:51.295Z,19.10
2023-04-16T18:23:54.083Z,19.83
2023-04-16T18:28:58.275Z,20.37
2023-04-16T18:34:03.455Z,19.10
2023-04-16T18:39:08.093Z,19.93
2023-04-16T18:44:12.685Z,27.83
2023-04-16T18:49:15.391Z,17.00
2023-04-16T18:54:20.266Z,16.40
2023-04-16T18:59:24.223Z,15.33
2023-04-16T19:04:28.772Z,16.80
2023-04-16T19:09:31.386Z,15.27
2023-04-16T19:14:35.617Z,18.23
2023-04-16T19:19:38.948Z,17.37
2023-04-16T19:24:42.162Z,16.60
2023-04-16T19:29:47.173Z,17.50
2023-04-16T19:34:49.845Z,17.20
2023-04-16T19:39:52.566Z,17.50
2023-04-16T19:44:56.810Z,19.27
2023-04-16T19:49:59.492Z,17.40
2023-04-16T19:55:02.040Z,18.10
2023-04-16T20:00:11.164Z,18.20
2023-04-16T20:05:13.779Z,17.67
2023-04-16T20:10:16.662Z,18.27
2023-04-16T20:15:21.105Z,19.50
2023-04-16T20:20:23.789Z,17.70
2023-04-16T20:25:26.501Z,19.13
2023-04-16T20:30:38.397Z,17.83
2023-04-16T20:35:41.016Z,19.20
2023-04-16T20:40:46.994Z,20.53
2023-04-16T20:45:50.880Z,20.50
2023-04-16T20:50:59.502Z,24.03
2023-04-16T20:56:02.098Z,22.43
2023-04-16T21:01:06.135Z,20.63
2023-04-16T21:06:08.834Z,22.07
2023-04-16T21:11:11.399Z,21.57
2023-04-16T21:16:15.517Z,22.63
2023-04-16T21:21:18.936Z,22.57
2023-04-16T21:26:21.534Z,23.27
2023-04-16T21:31:25.514Z,23.97
2023-04-16T21:36:29.115Z,24.20
2023-04-16T21:41:31.653Z,26.30
2023-04-16T21:46:35.655Z,27.13
2023-04-16T21:51:40.068Z,27.53
2023-04-16T21:56:43.083Z,28.03
2023-04-16T22:01:47.011Z,26.63
2023-04-16T22:06:55.684Z,28.30
2023-04-16T22:11:58.547Z,28.53
2023-04-16T22:17:03.431Z,27.30
2023-04-16T22:22:06.411Z,28.80
2023-04-16T22:27:08.955Z,26.77
2023-04-16T22:32:12.875Z,27.20
2023-04-16T22:37:15.813Z,28.90
2023-04-16T22:42:18.374Z,26.57
2023-04-16T22:47:22.458Z,27.03
2023-04-16T22:52:25.031Z,30.90
2023-04-16T22:57:27.565Z,29.97
2023-04-16T23:02:31.533Z,29.77
2023-04-16T23:07:34.159Z,30.10
2023-04-16T23:12:37.936Z,28.50
2023-04-16T23:17:41.894Z,28.93
2023-04-16T23:22:44.457Z,27.67
2023-04-16T23:27:47.412Z,27.77
2023-04-16T23:32:51.433Z,26.00
2023-04-16T23:37:53.988Z,27.27
2023-04-16T23:42:56.600Z,27.07
2023-04-16T23:48:00.619Z,27.00
2023-04-16T23:53:03.205Z,26.50
2023-04-16T23:58:05.746Z,28.20
